Terminal Aerodrome Forecast
Issued by NWS

Home | Current Version | Previous Version | Text Only | Print | Product List | Glossary On
Versions: 1 2 3 4 5 6 7 8 9 10 11 12 13 14 15 16 17 18 19 20 21 22
559
FTUS46 KMTR 191120
TAFMRY
TAF
KMRY 191120Z 1912/2012 VRB04KT 4SM BR OVC003
      TEMPO 1912/1916 2SM BR OVC002
     FM191900 25005KT P6SM BKN010 OVC025
     FM192200 22009KT P6SM BKN010 OVC020
     FM200300 25005KT P6SM OVC007
      TEMPO 2006/2010 4SM -RA BR
     FM201000 24008KT P6SM FEW010 SCT080=

USA.gov is the U.S. government's official web portal to all federal, state and local government web resources and services.